Time;durP1;ratioP1;P1;durP2;ratioP2;P2;SDS_P1;SDS_P2;PMS_P1;PMS_P2;Temp;Humidity;BMP_temperature;BMP_pressure;BME280_temperature;BME280_humidity;BME280_pressure;Samples;Min_cycle;Max_cycle;Signal;HPM_P1;HPM_P2
2022/01/07 00:01:08;;;;;;;17.33;10.23;;;5.50;99.90;;;;;;5115003;27;20410;-70
2022/01/07 00:03:34;;;;;;;18.50;10.37;;;5.50;99.90;;;;;;5106332;27;20412;-72
2022/01/07 00:06:00;;;;;;;17.65;9.63;;;5.50;99.90;;;;;;5117436;27;20403;-71
2022/01/07 00:08:27;;;;;;;20.63;10.35;;;5.50;99.90;;;;;;5112322;27;20899;-71
2022/01/07 00:10:53;;;;;;;18.85;9.82;;;5.50;99.90;;;;;;5106895;28;20407;-71
2022/01/07 00:13:19;;;;;;;19.50;11.10;;;5.40;99.90;;;;;;5111951;27;20416;-71
2022/01/07 00:15:45;;;;;;;22.30;10.13;;;5.40;99.90;;;;;;5107027;28;20407;-70
2022/01/07 00:18:12;;;;;;;21.35;9.95;;;5.40;99.90;;;;;;5114904;27;20909;-71
2022/01/07 00:20:39;;;;;;;17.95;9.27;;;5.40;99.90;;;;;;5111366;27;20427;-70
2022/01/07 00:23:05;;;;;;;20.48;9.63;;;5.40;99.90;;;;;;5106203;27;20890;-70
2022/01/07 00:25:31;;;;;;;21.75;10.20;;;5.40;99.90;;;;;;5098241;27;20407;-70
2022/01/07 00:27:56;;;;;;;22.40;9.60;;;5.40;99.90;;;;;;5104282;28;20926;-70
2022/01/07 00:30:22;;;;;;;22.90;10.13;;;5.40;99.90;;;;;;5104748;28;20418;-69
2022/01/07 00:32:48;;;;;;;22.53;10.53;;;5.50;99.90;;;;;;5105333;28;20422;-71
2022/01/07 00:35:16;;;;;;;21.70;10.93;;;5.50;99.90;;;;;;5110898;27;20408;-71
2022/01/07 00:37:43;;;;;;;20.63;10.73;;;5.50;99.90;;;;;;5101557;28;20412;-72
2022/01/07 00:40:13;;;;;;;22.10;11.30;;;5.50;99.90;;;;;;5085632;28;20409;-71
2022/01/07 00:42:42;;;;;;;23.45;10.90;;;5.50;99.90;;;;;;5106787;28;20451;-70
2022/01/07 00:45:09;;;;;;;22.27;11.07;;;5.50;99.90;;;;;;5092003;28;20422;-71
2022/01/07 00:47:35;;;;;;;20.17;11.20;;;5.50;99.90;;;;;;5106169;28;21011;-70
2022/01/07 00:50:01;;;;;;;20.90;11.30;;;5.40;99.90;;;;;;5106366;28;20906;-69
2022/01/07 00:52:26;;;;;;;23.73;11.70;;;5.40;99.90;;;;;;5117397;28;20441;-70
2022/01/07 00:54:52;;;;;;;25.50;12.20;;;5.40;99.90;;;;;;5111321;28;20805;-70
2022/01/07 00:57:18;;;;;;;26.50;11.30;;;5.40;99.90;;;;;;5138218;27;20418;-70
2022/01/07 00:59:46;;;;;;;24.40;11.98;;;5.40;99.90;;;;;;5106695;28;20773;-69
2022/01/07 01:02:13;;;;;;;26.75;11.73;;;5.40;99.90;;;;;;5113179;27;20424;-70
2022/01/07 01:04:40;;;;;;;22.45;11.45;;;5.40;99.90;;;;;;5111606;27;20405;-71
2022/01/07 01:07:05;;;;;;;20.63;11.65;;;5.50;99.90;;;;;;5111670;27;20499;-71
2022/01/07 01:09:31;;;;;;;21.92;11.65;;;5.40;99.90;;;;;;5109690;27;21030;-71
2022/01/07 01:11:57;;;;;;;23.53;11.23;;;5.50;99.90;;;;;;5106688;27;20464;-70
2022/01/07 01:14:23;;;;;;;21.75;11.38;;;5.50;99.90;;;;;;5109731;27;20416;-71
2022/01/07 01:16:51;;;;;;;21.73;11.17;;;5.50;99.90;;;;;;5109530;28;20419;-71
2022/01/07 01:19:17;;;;;;;21.35;11.07;;;5.50;99.90;;;;;;5107659;27;20419;-70
2022/01/07 01:21:43;;;;;;;20.88;10.85;;;5.50;99.90;;;;;;5112141;27;20404;-71
2022/01/07 01:24:09;;;;;;;25.23;10.77;;;5.50;99.90;;;;;;5110308;27;20485;-70
2022/01/07 01:26:34;;;;;;;22.23;10.37;;;5.50;99.90;;;;;;5114365;27;20412;-70
2022/01/07 01:29:00;;;;;;;19.80;10.47;;;5.50;99.90;;;;;;5105350;27;20433;-71
2022/01/07 01:31:26;;;;;;;20.20;10.10;;;5.50;99.90;;;;;;5108018;27;20493;-71
2022/01/07 01:33:51;;;;;;;19.27;9.73;;;5.50;99.90;;;;;;5090000;28;20968;-71
2022/01/07 01:36:17;;;;;;;21.63;9.70;;;5.50;99.90;;;;;;5108952;28;20491;-72
2022/01/07 01:38:43;;;;;;;19.63;9.70;;;5.60;99.90;;;;;;5108150;27;20494;-72
2022/01/07 01:41:09;;;;;;;17.27;9.20;;;5.60;99.90;;;;;;5094031;28;20431;-72
2022/01/07 01:43:35;;;;;;;19.25;9.70;;;5.60;99.90;;;;;;5115908;27;20402;-70
2022/01/07 01:46:01;;;;;;;17.65;9.65;;;5.60;99.90;;;;;;5112457;27;20434;-69
2022/01/07 01:48:27;;;;;;;16.07;9.33;;;5.60;99.90;;;;;;5116828;27;20408;-70
2022/01/07 01:50:55;;;;;;;16.65;9.20;;;5.60;99.90;;;;;;5108865;28;20416;-71
2022/01/07 01:53:21;;;;;;;17.17;9.63;;;5.60;99.90;;;;;;5116076;27;20486;-71
2022/01/07 01:55:47;;;;;;;16.70;9.82;;;5.60;99.90;;;;;;5143532;27;20843;-70
2022/01/07 01:58:12;;;;;;;19.58;10.38;;;5.60;99.90;;;;;;5122137;27;20416;-70
2022/01/07 02:00:38;;;;;;;17.40;10.23;;;5.60;99.90;;;;;;5111239;27;20399;-71
2022/01/07 02:03:05;;;;;;;19.60;9.50;;;5.60;99.90;;;;;;5108315;28;20830;-71
2022/01/07 02:05:31;;;;;;;16.45;10.57;;;5.60;99.90;;;;;;5115306;27;20900;-71
2022/01/07 02:07:57;;;;;;;19.45;10.73;;;5.60;99.90;;;;;;5116189;27;20434;-72
2022/01/07 02:10:23;;;;;;;20.27;11.45;;;5.60;99.90;;;;;;5089689;28;20930;-71
2022/01/07 02:12:49;;;;;;;17.33;11.23;;;5.60;99.90;;;;;;5137209;27;20402;-72
2022/01/07 02:15:15;;;;;;;18.55;11.07;;;5.60;99.90;;;;;;5108967;27;20482;-70
2022/01/07 02:17:44;;;;;;;18.95;11.10;;;5.70;99.90;;;;;;5110037;27;20439;-72
2022/01/07 02:20:11;;;;;;;16.90;11.17;;;5.70;99.90;;;;;;5108738;27;20450;-72
2022/01/07 02:22:37;;;;;;;19.25;11.18;;;5.60;99.90;;;;;;5110791;27;20403;-70
2022/01/07 02:25:03;;;;;;;16.93;11.50;;;5.60;99.90;;;;;;5112487;27;20762;-71
2022/01/07 02:27:30;;;;;;;17.33;11.25;;;5.60;99.90;;;;;;5108672;27;20427;-71
2022/01/07 02:29:56;;;;;;;18.48;10.90;;;5.70;99.90;;;;;;5113966;27;20963;-70
2022/01/07 02:32:22;;;;;;;17.52;11.35;;;5.70;99.90;;;;;;5116984;27;20404;-71
2022/01/07 02:34:48;;;;;;;18.20;11.60;;;5.70;99.90;;;;;;5105748;28;20761;-71
2022/01/07 02:37:15;;;;;;;22.20;11.60;;;5.70;99.90;;;;;;5113041;27;20975;-70
2022/01/07 02:39:41;;;;;;;17.75;11.75;;;5.70;99.90;;;;;;5113870;27;20412;-71
2022/01/07 02:42:07;;;;;;;19.90;11.52;;;5.70;99.90;;;;;;5114973;27;20828;-72
2022/01/07 02:44:33;;;;;;;18.33;11.83;;;5.70;99.90;;;;;;5106721;27;20411;-72
2022/01/07 02:47:00;;;;;;;20.05;12.32;;;5.70;99.90;;;;;;5101153;27;20451;-72
2022/01/07 02:49:25;;;;;;;20.88;12.45;;;5.70;99.90;;;;;;5110145;27;20405;-72
2022/01/07 02:51:51;;;;;;;18.03;11.67;;;5.80;99.90;;;;;;5125735;27;20487;-72
2022/01/07 02:54:17;;;;;;;19.95;12.50;;;5.80;99.90;;;;;;5105918;27;20482;-72
2022/01/07 02:56:43;;;;;;;22.15;11.93;;;5.80;99.90;;;;;;5113482;27;20436;-72
2022/01/07 02:59:10;;;;;;;20.58;11.90;;;5.80;99.90;;;;;;5089649;28;20420;-71
2022/01/07 03:01:38;;;;;;;18.33;12.07;;;5.80;99.90;;;;;;5107339;28;20447;-70
2022/01/07 03:04:05;;;;;;;20.10;12.25;;;5.90;99.90;;;;;;5109119;27;20561;-71
2022/01/07 03:06:31;;;;;;;18.80;12.50;;;5.80;99.90;;;;;;5108419;27;20746;-72
2022/01/07 03:08:57;;;;;;;21.17;13.07;;;5.90;99.90;;;;;;5115883;27;20416;-73
2022/01/07 03:11:23;;;;;;;18.27;12.33;;;5.90;99.90;;;;;;5113948;27;20416;-72
2022/01/07 03:13:49;;;;;;;19.70;12.27;;;5.90;99.90;;;;;;5110888;27;20415;-71
2022/01/07 03:16:15;;;;;;;18.37;12.10;;;5.90;99.90;;;;;;5107275;27;20769;-72
2022/01/07 03:18:40;;;;;;;19.27;12.63;;;5.90;99.90;;;;;;5091384;28;21178;-72
2022/01/07 03:21:06;;;;;;;18.80;12.57;;;5.90;99.90;;;;;;5105822;28;20416;-73
2022/01/07 03:23:32;;;;;;;19.37;12.43;;;6.00;99.90;;;;;;5106791;27;20443;-72
2022/01/07 03:25:58;;;;;;;17.77;12.30;;;5.90;99.90;;;;;;5107569;28;20459;-72
2022/01/07 03:28:24;;;;;;;18.37;13.30;;;6.00;99.90;;;;;;5115802;27;20934;-71
2022/01/07 03:30:50;;;;;;;18.50;13.27;;;6.00;99.90;;;;;;5117903;27;20482;-70
2022/01/07 03:33:16;;;;;;;22.13;14.10;;;6.00;99.90;;;;;;5105965;27;20912;-71
2022/01/07 03:35:42;;;;;;;22.05;14.18;;;6.00;99.90;;;;;;5121961;27;20432;-71
2022/01/07 03:38:08;;;;;;;20.07;14.30;;;6.00;99.90;;;;;;5145039;27;20831;-71
2022/01/07 03:40:35;;;;;;;22.42;14.93;;;6.00;99.90;;;;;;5116878;27;20548;-72
2022/01/07 03:43:02;;;;;;;23.85;13.57;;;6.00;99.90;;;;;;5110669;27;20936;-72
2022/01/07 03:45:27;;;;;;;17.75;11.75;;;5.70;99.90;;;;;;5107321;27;20209;-72
2022/01/07 03:47:54;;;;;;;19.33;11.90;;;5.40;99.90;;;;;;5118030;27;20204;-72
2022/01/07 03:50:22;;;;;;;20.95;11.98;;;5.30;99.90;;;;;;5115886;27;20184;-73
2022/01/07 03:52:48;;;;;;;21.02;12.43;;;5.10;99.90;;;;;;5108720;27;20181;-72
2022/01/07 03:55:17;;;;;;;22.30;12.15;;;5.00;99.90;;;;;;5112205;27;20190;-70
2022/01/07 03:57:43;;;;;;;20.88;12.85;;;5.00;99.90;;;;;;5114721;27;20196;-71
2022/01/07 04:00:12;;;;;;;19.35;11.50;;;4.90;99.90;;;;;;5119724;27;20189;-72
2022/01/07 04:02:41;;;;;;;24.23;16.38;;;4.90;99.90;;;;;;5108237;27;20396;-72
2022/01/07 04:05:08;;;;;;;23.03;16.47;;;5.30;99.90;;;;;;5105083;28;20769;-71
2022/01/07 04:07:33;;;;;;;21.07;15.87;;;5.60;99.90;;;;;;5107346;27;20741;-70
2022/01/07 04:09:59;;;;;;;25.17;15.35;;;5.80;99.90;;;;;;5112799;27;20444;-71
2022/01/07 04:12:26;;;;;;;27.30;15.20;;;5.90;99.90;;;;;;5118485;27;20458;-71
2022/01/07 04:15:04;;;;;;;19.27;15.13;;;6.00;99.90;;;;;;5104465;28;20414;-72
2022/01/07 04:17:30;;;;;;;21.75;15.57;;;6.00;99.90;;;;;;5104024;28;20412;-72
2022/01/07 04:19:55;;;;;;;23.57;15.50;;;6.10;99.90;;;;;;5112571;27;20479;-71
2022/01/07 04:22:21;;;;;;;22.98;15.60;;;6.10;99.90;;;;;;5111646;27;20424;-71
2022/01/07 04:24:47;;;;;;;20.87;15.10;;;6.20;99.90;;;;;;5114951;27;20410;-71
2022/01/07 04:27:12;;;;;;;20.50;15.03;;;6.20;99.90;;;;;;5093568;28;20411;-71
2022/01/07 04:29:38;;;;;;;20.40;14.40;;;6.20;99.90;;;;;;5104783;28;20972;-71
2022/01/07 04:32:05;;;;;;;23.93;14.33;;;6.20;99.90;;;;;;5112080;27;20412;-72
2022/01/07 04:34:31;;;;;;;20.63;13.93;;;6.20;99.90;;;;;;5107462;27;20404;-72
2022/01/07 04:36:56;;;;;;;22.90;13.80;;;6.30;99.90;;;;;;5112719;27;20415;-72
2022/01/07 04:39:22;;;;;;;19.13;13.02;;;6.30;99.90;;;;;;5108310;27;20439;-72
2022/01/07 04:41:48;;;;;;;18.90;12.80;;;6.30;99.90;;;;;;5106772;27;20416;-72
2022/01/07 04:44:13;;;;;;;20.70;13.10;;;6.30;99.90;;;;;;5107685;28;20412;-71
2022/01/07 04:46:39;;;;;;;19.73;13.10;;;6.30;99.90;;;;;;5107760;27;20598;-70
2022/01/07 04:49:05;;;;;;;18.38;11.55;;;6.40;99.90;;;;;;5090436;28;20184;-72
2022/01/07 04:51:30;;;;;;;18.55;10.90;;;6.00;99.90;;;;;;5110816;28;20330;-70
2022/01/07 04:53:56;;;;;;;18.27;10.63;;;5.70;99.90;;;;;;5117063;28;20646;-71
2022/01/07 04:56:21;;;;;;;18.75;11.02;;;5.50;99.90;;;;;;5094668;28;20193;-72
2022/01/07 04:58:47;;;;;;;19.60;10.98;;;5.40;99.90;;;;;;5111477;28;20196;-72
2022/01/07 05:01:13;;;;;;;17.02;10.73;;;5.30;99.90;;;;;;5107273;28;20204;-72
2022/01/07 05:03:38;;;;;;;16.33;10.98;;;5.30;99.90;;;;;;5107073;28;20176;-74
2022/01/07 05:08:48;;;;;;;21.35;10.55;;;5.10;99.90;;;;;;5105724;28;20192;-71
2022/01/07 05:11:13;;;;;;;19.55;11.00;;;5.10;99.90;;;;;;5113495;28;20205;-70
2022/01/07 05:13:39;;;;;;;18.52;10.10;;;5.10;99.90;;;;;;5114559;28;20702;-71
2022/01/07 05:16:05;;;;;;;22.50;10.90;;;5.00;99.90;;;;;;5116323;28;20196;-73
2022/01/07 05:18:31;;;;;;;23.95;11.65;;;5.10;99.90;;;;;;5107863;27;20224;-73
2022/01/07 05:20:56;;;;;;;22.10;10.88;;;5.00;99.90;;;;;;5109609;28;20232;-73
2022/01/07 05:23:23;;;;;;;25.05;10.27;;;5.00;99.90;;;;;;5108334;28;20203;-73
2022/01/07 05:25:49;;;;;;;18.85;10.82;;;5.10;99.90;;;;;;5106176;28;20230;-72
2022/01/07 05:28:15;;;;;;;24.15;10.82;;;5.10;99.90;;;;;;5104266;28;20182;-71
2022/01/07 05:30:40;;;;;;;21.77;10.30;;;5.10;99.90;;;;;;5098410;28;20219;-72
2022/01/07 05:33:06;;;;;;;21.65;11.13;;;5.10;99.90;;;;;;5112216;28;20197;-72
2022/01/07 05:35:32;;;;;;;22.38;10.73;;;5.10;99.90;;;;;;5088967;28;20196;-70
2022/01/07 05:38:00;;;;;;;21.48;10.80;;;5.20;99.90;;;;;;5105703;28;20169;-71
2022/01/07 05:40:25;;;;;;;23.83;14.23;;;5.20;99.90;;;;;;5104320;28;20412;-71
2022/01/07 05:42:51;;;;;;;25.97;13.53;;;5.60;99.90;;;;;;5108663;28;20776;-73
2022/01/07 05:45:17;;;;;;;22.63;12.45;;;5.90;99.90;;;;;;5102003;28;20415;-71
2022/01/07 05:47:42;;;;;;;24.03;13.13;;;6.10;99.90;;;;;;5106965;27;20552;-71
2022/01/07 05:50:09;;;;;;;32.47;13.60;;;6.30;99.90;;;;;;5105077;28;20522;-72
2022/01/07 05:52:34;;;;;;;26.25;13.15;;;6.40;99.90;;;;;;5116313;27;20414;-73
2022/01/07 05:55:00;;;;;;;27.02;11.52;;;6.40;99.90;;;;;;5140184;27;20234;-73
2022/01/07 05:57:27;;;;;;;21.83;10.82;;;6.20;99.90;;;;;;5116490;27;20192;-71
2022/01/07 05:59:53;;;;;;;23.60;10.40;;;6.00;99.90;;;;;;5109421;27;20519;-71
2022/01/07 06:02:19;;;;;;;30.92;11.05;;;5.80;99.90;;;;;;5105691;28;20212;-71
2022/01/07 06:04:44;;;;;;;40.22;13.63;;;5.70;99.90;;;;;;5108326;27;20781;-72
2022/01/07 06:07:10;;;;;;;37.47;13.20;;;6.00;99.90;;;;;;5115300;27;20466;-70
2022/01/07 06:09:35;;;;;;;36.37;12.80;;;6.30;99.90;;;;;;5106545;27;20412;-71
2022/01/07 06:12:01;;;;;;;36.55;12.80;;;6.40;99.90;;;;;;5116073;27;21669;-75
2022/01/07 06:14:28;;;;;;;38.92;12.70;;;6.60;99.90;;;;;;5107391;27;20776;-71
2022/01/07 06:16:54;;;;;;;38.33;11.75;;;6.70;99.90;;;;;;5105238;28;20494;-73
2022/01/07 06:19:20;;;;;;;33.78;11.20;;;6.80;99.90;;;;;;5106301;27;21264;-70
2022/01/07 06:21:46;;;;;;;42.53;12.10;;;6.90;99.90;;;;;;5104410;27;20440;-71
2022/01/07 06:24:12;;;;;;;36.92;10.23;;;7.00;99.90;;;;;;5117868;27;20205;-73
2022/01/07 06:26:38;;;;;;;33.03;9.98;;;6.60;99.90;;;;;;5119531;27;20204;-72
2022/01/07 06:29:04;;;;;;;40.53;10.90;;;6.40;99.90;;;;;;5113364;27;20207;-72
2022/01/07 06:31:30;;;;;;;33.17;10.68;;;6.30;99.90;;;;;;5110502;27;20185;-71
2022/01/07 06:33:58;;;;;;;30.98;10.55;;;6.30;99.90;;;;;;5120748;27;20181;-72
2022/01/07 06:36:24;;;;;;;33.25;11.13;;;6.20;99.90;;;;;;5110411;27;20994;-73
2022/01/07 06:38:50;;;;;;;40.15;10.43;;;6.10;99.90;;;;;;5117604;27;20212;-72
2022/01/07 06:41:15;;;;;;;40.20;11.27;;;6.10;99.90;;;;;;5118405;27;20255;-72
2022/01/07 06:43:43;;;;;;;30.40;11.63;;;6.00;99.90;;;;;;5117805;27;20242;-74
2022/01/07 06:46:11;;;;;;;41.13;12.02;;;6.00;99.90;;;;;;5112338;27;20228;-72
2022/01/07 06:48:37;;;;;;;36.10;12.70;;;6.00;99.90;;;;;;5093137;28;20942;-73
2022/01/07 06:51:02;;;;;;;44.22;12.45;;;6.00;99.90;;;;;;5112868;27;20222;-73
2022/01/07 06:53:30;;;;;;;37.15;12.88;;;6.00;99.90;;;;;;5110798;27;20227;-73
2022/01/07 06:56:00;;;;;;;33.13;12.63;;;6.00;99.90;;;;;;5116046;27;20216;-74
2022/01/07 06:58:26;;;;;;;34.88;12.05;;;6.00;99.90;;;;;;5106802;27;20653;-73
2022/01/07 07:00:52;;;;;;;34.78;12.27;;;5.90;99.90;;;;;;5106160;27;20300;-73
2022/01/07 07:03:18;;;;;;;37.85;12.98;;;5.90;99.90;;;;;;5111233;27;20704;-71
2022/01/07 07:05:44;;;;;;;36.70;12.82;;;5.90;99.90;;;;;;5121839;27;20273;-73
2022/01/07 07:08:10;;;;;;;43.95;12.40;;;5.90;99.90;;;;;;5118551;27;20596;-74
2022/01/07 07:10:35;;;;;;;35.80;12.73;;;5.90;99.90;;;;;;5122189;27;20656;-74
2022/01/07 07:13:01;;;;;;;31.42;12.90;;;5.90;99.90;;;;;;5118555;27;20275;-74
2022/01/07 07:15:27;;;;;;;31.70;13.57;;;5.90;99.90;;;;;;5109760;27;20189;-73
2022/01/07 07:17:52;;;;;;;32.05;13.43;;;5.80;99.90;;;;;;5119576;27;20280;-73
2022/01/07 07:20:18;;;;;;;40.95;13.48;;;5.80;99.90;;;;;;5121566;27;20261;-73
2022/01/07 07:22:44;;;;;;;36.20;14.68;;;5.80;99.90;;;;;;5115119;27;20177;-71
2022/01/07 07:25:11;;;;;;;34.55;14.82;;;5.80;99.90;;;;;;5116610;27;20570;-72
2022/01/07 07:27:36;;;;;;;42.85;14.70;;;5.80;99.90;;;;;;5110758;28;20630;-72
2022/01/07 07:30:07;;;;;;;29.98;13.80;;;5.80;99.90;;;;;;5123094;27;20246;-72
2022/01/07 07:32:34;;;;;;;37.03;15.20;;;5.80;99.90;;;;;;5108148;27;20197;-72
2022/01/07 07:36:26;;;;;;;40.55;16.70;;;5.80;99.90;;;;;;5109959;27;20272;-71
2022/01/07 07:37:49;;;;;;;36.33;12.00;;;5.70;99.90;;;;;;5112327;27;20185;-70
2022/01/07 07:40:15;;;;;;;;;;;5.80;99.90;;;;;;5116035;27;20103;-70
2022/01/07 07:42:41;;;;;;;;;;;5.70;99.90;;;;;;5109798;27;20002;-69
2022/01/07 07:45:09;;;;;;;;;;;5.60;99.90;;;;;;5116967;27;19918;-70
2022/01/07 07:47:35;;;;;;;;;;;5.50;99.90;;;;;;5108472;28;19912;-71
2022/01/07 07:50:01;;;;;;;;;;;5.40;99.90;;;;;;5142617;27;19919;-72
2022/01/07 07:52:26;;;;;;;;;;;5.30;99.90;;;;;;5097244;28;19907;-70
2022/01/07 07:54:52;;;;;;;;;;;5.30;99.90;;;;;;5111437;27;20007;-70
2022/01/07 07:57:19;;;;;;;;;;;5.30;99.90;;;;;;5119806;27;19907;-71
2022/01/07 07:59:44;;;;;;;;;;;5.30;99.90;;;;;;5095685;28;19960;-71
2022/01/07 08:02:11;;;;;;;;;;;5.30;99.90;;;;;;5110255;27;19911;-70
2022/01/07 08:04:37;;;;;;;;;;;5.30;99.90;;;;;;5115238;27;19908;-70
2022/01/07 08:07:03;;;;;;;;;;;5.30;99.90;;;;;;5115544;27;20268;-71
2022/01/07 08:09:32;;;;;;;;;;;5.30;99.90;;;;;;5117413;27;19919;-72
2022/01/07 08:12:05;;;;;;;;;;;5.20;99.90;;;;;;5115732;27;19994;-73
2022/01/07 08:17:15;;;;;;;;;;;5.20;99.90;;;;;;5109097;27;19911;-73
2022/01/07 08:19:40;;;;;;;;;;;5.20;99.90;;;;;;5110370;27;19908;-72
2022/01/07 08:22:06;;;;;;;;;;;5.30;99.90;;;;;;5107073;27;19964;-71
2022/01/07 08:24:31;;;;;;;;;;;5.30;99.90;;;;;;5113637;27;19960;-73
2022/01/07 08:26:57;;;;;;;;;;;5.40;99.90;;;;;;5117408;27;20287;-73
2022/01/07 08:29:26;;;;;;;;;;;5.40;99.90;;;;;;5114105;27;19911;-71
2022/01/07 08:34:54;;;;;;;;;;;5.50;99.90;;;;;;5107750;27;19912;-72
2022/01/07 08:37:28;;;;;;;;;;;5.50;99.90;;;;;;5111201;27;19965;-73
2022/01/07 08:39:55;;;;;;;;;;;5.50;99.90;;;;;;5107775;28;20283;-72
2022/01/07 08:42:25;;;;;;;;;;;5.50;99.90;;;;;;5090834;28;20281;-72
2022/01/07 08:44:52;;;;;;;;;;;5.50;99.90;;;;;;5109525;28;20306;-73
2022/01/07 08:47:19;;;;;;;;;;;5.50;99.90;;;;;;5109814;28;19995;-72
2022/01/07 08:49:45;;;;;;;;;;;5.60;99.90;;;;;;5114225;27;19911;-72
2022/01/07 08:52:10;;;;;;;;;;;5.60;99.90;;;;;;5136412;27;19912;-74
2022/01/07 08:54:36;;;;;;;;;;;5.60;99.90;;;;;;5104073;28;20006;-72
2022/01/07 08:57:01;;;;;;;;;;;5.60;99.90;;;;;;5111197;28;19916;-73
2022/01/07 08:59:27;;;;;;;;;;;5.60;99.90;;;;;;5121664;28;19947;-73
2022/01/07 09:01:52;;;;;;;;;;;5.60;99.90;;;;;;5105902;28;20312;-73
2022/01/07 09:04:18;;;;;;;;;;;5.70;99.90;;;;;;5106919;28;20294;-73
2022/01/07 09:06:43;;;;;;;31.02;3.08;;;5.70;99.90;;;;;;5108444;28;20236;-75
2022/01/07 09:09:09;;;;;;;20.43;3.20;;;5.80;99.90;;;;;;5104866;28;20403;-73
2022/01/07 09:11:35;;;;;;;29.63;2.88;;;6.10;99.90;;;;;;5109969;28;20402;-72
2022/01/07 09:14:00;;;;;;;23.40;3.20;;;6.40;99.90;;;;;;5105984;28;20453;-71
2022/01/07 09:16:26;;;;;;;23.55;2.90;;;6.60;99.90;;;;;;5112504;28;20173;-72
2022/01/07 09:18:52;;;;;;;23.73;2.55;;;6.50;99.90;;;;;;5107383;28;20185;-74
2022/01/07 09:21:18;;;;;;;22.77;2.38;;;6.30;99.90;;;;;;5116395;27;20299;-71
2022/01/07 09:23:44;;;;;;;26.27;2.80;;;6.30;99.90;;;;;;5113894;27;20238;-71
2022/01/07 09:26:10;;;;;;;22.35;2.20;;;6.20;99.90;;;;;;5118772;27;20634;-72
2022/01/07 09:28:36;;;;;;;16.58;2.50;;;6.20;99.90;;;;;;5109875;28;20727;-72
2022/01/07 09:31:02;;;;;;;20.58;2.35;;;6.10;99.90;;;;;;5112499;27;20193;-72
2022/01/07 09:33:28;;;;;;;19.63;2.97;;;6.10;99.90;;;;;;5111085;27;20235;-73
2022/01/07 09:35:54;;;;;;;19.95;3.90;;;6.10;99.90;;;;;;5119648;27;20415;-73
2022/01/07 09:38:21;;;;;;;16.88;2.92;;;6.40;99.90;;;;;;5107342;28;20185;-71
2022/01/07 09:40:49;;;;;;;24.20;2.83;;;6.30;99.90;;;;;;5109835;28;20266;-73
2022/01/07 09:43:15;;;;;;;15.48;2.67;;;6.20;99.90;;;;;;5110689;28;20283;-71
2022/01/07 09:45:41;;;;;;;16.67;2.40;;;6.10;99.90;;;;;;5108738;27;20188;-72
2022/01/07 09:48:08;;;;;;;19.17;2.78;;;5.90;99.90;;;;;;5113499;27;20180;-73
2022/01/07 09:50:36;;;;;;;27.35;2.78;;;5.90;99.90;;;;;;5112653;27;20182;-73
2022/01/07 09:53:07;;;;;;;17.75;2.60;;;5.80;99.90;;;;;;5110087;28;20185;-74
2022/01/07 09:55:33;;;;;;;20.40;3.20;;;5.80;99.90;;;;;;5109487;28;20746;-74
2022/01/07 09:58:00;;;;;;;25.50;3.25;;;5.80;99.90;;;;;;5121008;27;20638;-74
2022/01/07 10:00:37;;;;;;;21.20;3.10;;;5.90;99.90;;;;;;5109815;27;20221;-72
2022/01/07 10:03:08;;;;;;;20.55;3.28;;;6.10;99.90;;;;;;5101024;27;20188;-73
2022/01/07 10:05:45;;;;;;;23.00;3.17;;;6.30;99.90;;;;;;5111428;27;20229;-73
2022/01/07 10:08:26;;;;;;;23.77;3.03;;;6.30;99.90;;;;;;5114407;27;20184;-73
2022/01/07 10:11:14;;;;;;;15.52;3.30;;;6.60;99.90;;;;;;5106347;27;21872;-74
2022/01/07 10:13:43;;;;;;;19.70;3.40;;;7.30;99.90;;;;;;5112671;27;20442;-72
2022/01/07 10:16:19;;;;;;;16.30;3.50;;;7.60;99.90;;;;;;5107169;28;20443;-72
2022/01/07 10:18:47;;;;;;;21.23;3.60;;;7.70;99.90;;;;;;5108651;28;20951;-72
2022/01/07 10:21:14;;;;;;;15.87;3.00;;;7.70;99.90;;;;;;5115773;27;20410;-73
2022/01/07 10:23:40;;;;;;;16.58;2.75;;;7.70;99.90;;;;;;5138797;27;20420;-72
2022/01/07 10:26:32;;;;;;;13.23;2.10;;;7.70;99.90;;;;;;5117075;27;20504;-73
2022/01/07 10:28:58;;;;;;;14.63;2.03;;;7.80;99.90;;;;;;5109069;27;20420;-73
2022/01/07 10:31:24;;;;;;;18.77;2.53;;;7.90;99.90;;;;;;5111182;27;20852;-74
2022/01/07 10:33:52;;;;;;;15.73;3.00;;;8.00;99.90;;;;;;5104802;28;20424;-74
2022/01/07 10:36:24;;;;;;;19.40;2.92;;;8.00;99.90;;;;;;5109593;27;20492;-72
2022/01/07 10:38:55;;;;;;;20.27;2.63;;;8.00;99.90;;;;;;5112558;27;20412;-71
2022/01/07 10:41:22;;;;;;;17.77;2.80;;;8.00;99.90;;;;;;5111311;27;20418;-72
2022/01/07 10:43:49;;;;;;;19.45;2.80;;;7.90;99.90;;;;;;5096453;28;20914;-72
2022/01/07 10:46:27;;;;;;;19.67;3.00;;;7.90;99.90;;;;;;5106447;27;20430;-72
2022/01/07 10:48:55;;;;;;;21.15;2.85;;;8.00;99.90;;;;;;5109595;27;21304;-75
2022/01/07 10:51:32;;;;;;;20.73;2.87;;;8.10;99.90;;;;;;5113699;27;20443;-73
2022/01/07 10:54:00;;;;;;;19.60;3.50;;;8.20;99.90;;;;;;5109720;27;20415;-73
2022/01/07 10:56:31;;;;;;;18.48;2.90;;;8.30;99.90;;;;;;5106931;28;20415;-72
2022/01/07 10:59:06;;;;;;;21.10;3.05;;;8.50;99.90;;;;;;5090598;28;20420;-74
2022/01/07 11:01:36;;;;;;;16.50;2.97;;;8.60;99.90;;;;;;5107443;27;20428;-73
2022/01/07 11:04:05;;;;;;;15.13;3.00;;;8.60;99.90;;;;;;5112342;27;20407;-73
2022/01/07 11:06:31;;;;;;;17.33;2.75;;;8.70;99.50;;;;;;5107397;28;21188;-73
2022/01/07 11:08:58;;;;;;;14.45;2.60;;;8.60;99.10;;;;;;5108487;28;20499;-72
2022/01/07 11:11:27;;;;;;;17.73;2.78;;;8.60;98.80;;;;;;5116018;27;20409;-73
2022/01/07 11:13:53;;;;;;;20.77;3.47;;;8.50;98.50;;;;;;5108207;28;20412;-75
2022/01/07 11:16:19;;;;;;;20.80;3.60;;;8.50;98.20;;;;;;5090482;28;20426;-72
2022/01/07 11:18:46;;;;;;;17.33;2.80;;;8.40;97.90;;;;;;5116336;27;20415;-74
2022/01/07 11:21:16;;;;;;;17.67;2.80;;;8.30;97.80;;;;;;5112202;27;20418;-74
2022/01/07 11:23:41;;;;;;;16.23;2.73;;;8.40;98.00;;;;;;5106508;27;20524;-74
2022/01/07 11:26:13;;;;;;;17.30;2.67;;;8.50;97.90;;;;;;5107491;28;20414;-72
2022/01/07 11:28:54;;;;;;;;;;;8.60;97.40;;;;;;5108725;28;20023;-73
2022/01/07 11:31:20;;;;;;;;;;;8.30;98.00;;;;;;5109801;27;19969;-73
2022/01/07 11:33:45;;;;;;;;;;;8.20;98.80;;;;;;5109426;28;19908;-73
2022/01/07 11:36:12;;;;;;;;;;;8.10;99.50;;;;;;5109912;28;19912;-73
2022/01/07 11:38:37;;;;;;;;;;;8.00;99.60;;;;;;5109484;28;20329;-73
2022/01/07 11:41:04;;;;;;;;;;;7.90;99.80;;;;;;5107935;28;19916;-73
2022/01/07 11:43:42;;;;;;;13.82;1.98;;;7.80;99.40;;;;;;5108002;28;20240;-73
2022/01/07 11:46:29;;;;;;;10.77;1.90;;;7.70;99.90;;;;;;5107973;28;20188;-73
2022/01/07 11:48:58;;;;;;;14.00;2.08;;;7.70;99.90;;;;;;5106363;27;20614;-73
2022/01/07 11:51:38;;;;;;;15.45;2.35;;;7.60;99.90;;;;;;5142151;27;20263;-74
2022/01/07 11:54:05;;;;;;;15.55;2.25;;;7.60;99.80;;;;;;5106980;28;20529;-73
2022/01/07 11:56:32;;;;;;;16.40;2.25;;;7.50;99.90;;;;;;5106694;28;20177;-72
2022/01/07 11:59:11;;;;;;;13.77;2.03;;;7.50;99.90;;;;;;5107329;28;20189;-75
2022/01/07 12:01:40;;;;;;;17.20;2.15;;;7.50;99.90;;;;;;5111798;27;20212;-72
2022/01/07 12:04:14;;;;;;;13.43;1.88;;;7.60;99.90;;;;;;5106154;28;20181;-74
2022/01/07 12:06:40;;;;;;;21.20;2.53;;;7.70;99.90;;;;;;5105789;28;20185;-72
2022/01/07 12:09:06;;;;;;;15.57;2.50;;;7.80;99.90;;;;;;5116854;27;20189;-72
2022/01/07 12:12:05;;;;;;;10.75;1.80;;;8.00;99.90;;;;;;5110625;27;20196;-72
2022/01/07 12:14:35;;;;;;;14.32;2.30;;;8.00;99.60;;;;;;5075018;27;20204;-75
2022/01/07 12:17:02;;;;;;;15.57;2.25;;;8.00;99.50;;;;;;5111523;27;20196;-76
2022/01/07 12:19:28;;;;;;;14.23;1.83;;;8.00;99.40;;;;;;5109027;27;20189;-75
2022/01/07 12:21:56;;;;;;;15.40;1.92;;;7.90;99.20;;;;;;5108854;28;20622;-74
2022/01/07 12:24:27;;;;;;;16.20;1.98;;;8.00;99.10;;;;;;5109956;27;20610;-74
2022/01/07 12:27:09;;;;;;;10.70;1.42;;;8.00;99.10;;;;;;5108861;28;20181;-73
2022/01/07 12:29:38;;;;;;;13.75;2.45;;;8.20;99.30;;;;;;5104329;27;20529;-73
2022/01/07 12:32:05;;;;;;;14.48;2.10;;;8.50;99.60;;;;;;5115340;27;20191;-75
2022/01/07 12:34:34;;;;;;;18.92;1.98;;;8.80;99.30;;;;;;5106748;28;20185;-73
2022/01/07 12:37:05;;;;;;;10.85;1.90;;;9.00;99.00;;;;;;5105820;27;20242;-74
2022/01/07 12:39:39;;;;;;;11.60;2.03;;;9.20;98.90;;;;;;5123548;27;20181;-75
2022/01/07 12:42:05;;;;;;;;;;;9.50;98.50;;;;;;5109854;28;20109;-72
2022/01/07 12:44:34;;;;;;;;;;;9.70;98.70;;;;;;5106905;28;20011;-76
2022/01/07 12:47:00;;;;;;;;;;;9.70;98.40;;;;;;5118309;28;19907;-75
2022/01/07 12:49:41;;;;;;;;;;;9.60;98.10;;;;;;5114110;27;20394;-75
2022/01/07 12:52:21;;;;;;;14.43;2.00;;;9.40;97.70;;;;;;5121556;27;20531;-75
2022/01/07 12:54:55;;;;;;;14.05;2.50;;;9.20;97.80;;;;;;5112190;28;20195;-73
2022/01/07 12:57:33;;;;;;;14.93;2.47;;;9.10;97.70;;;;;;5118144;28;20208;-76
2022/01/07 13:00:11;;;;;;;9.85;1.88;;;9.20;97.80;;;;;;5107196;28;20189;-78
2022/01/07 13:02:40;;;;;;;19.83;2.10;;;9.30;97.50;;;;;;5101066;28;20215;-74